createdAt,value
2019-01-24T00:01:29.027Z,38.17
2019-01-24T00:03:56.652Z,31.60
2019-01-24T00:06:24.267Z,34.25
2019-01-24T00:08:52.856Z,37.88
2019-01-24T00:11:20.859Z,40.03
2019-01-24T00:13:48.877Z,36.65
2019-01-24T00:16:16.634Z,36.95
2019-01-24T00:18:44.407Z,40.73
2019-01-24T00:21:11.956Z,39.40
2019-01-24T00:23:39.549Z,33.35
2019-01-24T00:26:07.370Z,37.83
2019-01-24T00:28:35.667Z,39.13
2019-01-24T00:31:03.230Z,36.77
2019-01-24T00:33:30.786Z,34.80
2019-01-24T00:35:58.688Z,38.70
2019-01-24T00:38:26.454Z,36.13
2019-01-24T00:40:53.970Z,37.50
2019-01-24T00:43:21.596Z,37.98
2019-01-24T00:45:49.231Z,42.50
2019-01-24T00:48:17.234Z,38.38
2019-01-24T00:50:45.279Z,34.67
2019-01-24T00:53:13.198Z,39.98
2019-01-24T00:55:41.137Z,39.55
2019-01-24T00:58:08.690Z,39.65
2019-01-24T01:00:36.798Z,37.75
2019-01-24T01:03:04.738Z,39.30
2019-01-24T01:05:32.250Z,45.25
2019-01-24T01:08:00.366Z,36.15
2019-01-24T01:10:28.003Z,39.33
2019-01-24T01:12:56.080Z,44.80
2019-01-24T01:15:24.066Z,44.80
2019-01-24T01:17:52.248Z,33.45
2019-01-24T01:20:21.223Z,33.92
2019-01-24T01:22:49.201Z,37.42
2019-01-24T01:25:19.423Z,34.92
2019-01-24T01:27:47.595Z,38.38
2019-01-24T01:30:17.531Z,36.63
2019-01-24T01:32:45.854Z,39.13
2019-01-24T01:35:13.818Z,40.38
2019-01-24T01:37:41.826Z,42.03
2019-01-24T01:40:10.606Z,39.80
2019-01-24T01:42:38.096Z,39.85
2019-01-24T01:45:08.526Z,42.30
2019-01-24T01:47:36.434Z,44.60
2019-01-24T01:50:05.898Z,37.35
2019-01-24T01:52:33.462Z,43.85
2019-01-24T01:55:01.393Z,40.17
2019-01-24T01:57:29.259Z,44.60
2019-01-24T01:59:56.863Z,42.78
2019-01-24T02:02:24.477Z,38.80
2019-01-24T02:04:52.551Z,39.40
2019-01-24T02:07:20.522Z,44.10
2019-01-24T02:09:50.774Z,43.28
2019-01-24T02:12:18.506Z,41.48
2019-01-24T02:14:46.778Z,37.93
2019-01-24T02:17:14.606Z,41.10
2019-01-24T02:19:42.534Z,46.33
2019-01-24T02:22:10.236Z,40.40
2019-01-24T02:24:37.873Z,38.00
2019-01-24T02:27:05.502Z,35.52
2019-01-24T02:29:33.091Z,47.67
2019-01-24T02:32:01.010Z,41.18
2019-01-24T02:34:28.994Z,40.58
2019-01-24T02:36:56.864Z,37.80
2019-01-24T02:39:25.237Z,39.00
2019-01-24T02:41:53.378Z,36.60
2019-01-24T02:44:20.988Z,37.67
2019-01-24T02:46:48.625Z,39.78
2019-01-24T02:49:16.607Z,40.12
2019-01-24T02:51:44.314Z,41.00
2019-01-24T02:54:11.930Z,45.65
2019-01-24T02:56:39.486Z,42.53
2019-01-24T02:59:07.506Z,41.18
2019-01-24T03:01:35.726Z,39.03
2019-01-24T03:04:04.253Z,43.48
2019-01-24T03:06:31.925Z,43.87
2019-01-24T03:09:00.171Z,41.08
2019-01-24T03:11:28.161Z,45.00
2019-01-24T03:13:56.003Z,38.35
2019-01-24T03:16:23.922Z,44.18
2019-01-24T03:18:51.582Z,36.95
2019-01-24T03:21:19.566Z,42.00
2019-01-24T03:23:47.652Z,41.35
2019-01-24T03:26:15.277Z,46.53
2019-01-24T03:28:43.182Z,40.08
2019-01-24T03:31:11.117Z,39.03
2019-01-24T03:33:39.426Z,39.15
2019-01-24T03:36:07.067Z,36.20
2019-01-24T03:38:34.845Z,38.98
2019-01-24T03:41:02.814Z,44.15
2019-01-24T03:43:30.774Z,47.40
2019-01-24T03:45:58.478Z,39.38
2019-01-24T03:48:26.078Z,43.73
2019-01-24T03:50:54.038Z,43.85
2019-01-24T03:53:21.555Z,42.43
2019-01-24T03:55:49.582Z,48.13
2019-01-24T03:58:17.666Z,47.67
2019-01-24T04:00:45.340Z,38.98
2019-01-24T04:03:13.011Z,40.48
2019-01-24T04:05:41.095Z,46.60
2019-01-24T04:08:10.366Z,38.17
2019-01-24T04:10:38.534Z,44.05
2019-01-24T04:13:07.126Z,40.52
2019-01-24T04:15:34.742Z,42.45
2019-01-24T04:18:02.347Z,42.90
2019-01-24T04:20:30.280Z,44.25
2019-01-24T04:22:58.690Z,40.17
2019-01-24T04:25:26.301Z,40.15
2019-01-24T04:27:54.328Z,43.83
2019-01-24T04:30:23.187Z,45.05
2019-01-24T04:32:51.089Z,39.15
2019-01-24T04:35:19.889Z,43.87
2019-01-24T04:37:48.012Z,44.08
2019-01-24T04:40:16.442Z,45.55
2019-01-24T04:42:44.051Z,42.43
2019-01-24T04:45:13.303Z,39.83
2019-01-24T04:47:40.944Z,43.73
2019-01-24T04:50:10.748Z,42.55
2019-01-24T04:52:38.623Z,39.70
2019-01-24T04:55:07.803Z,43.50
2019-01-24T04:57:35.454Z,49.20
2019-01-24T05:00:06.641Z,40.70
2019-01-24T05:02:34.670Z,37.67
2019-01-24T05:05:02.559Z,39.40
2019-01-24T05:07:30.337Z,39.35
2019-01-24T05:09:58.100Z,41.50
2019-01-24T05:12:26.053Z,47.53
2019-01-24T05:14:53.711Z,39.40
2019-01-24T05:17:21.353Z,44.10
2019-01-24T05:19:49.315Z,38.58
2019-01-24T05:22:17.514Z,41.15
2019-01-24T05:24:45.160Z,39.73
2019-01-24T05:27:13.267Z,43.17
2019-01-24T05:29:40.939Z,43.98
2019-01-24T05:32:08.639Z,46.55
2019-01-24T05:34:36.297Z,45.05
2019-01-24T05:37:03.999Z,40.10
2019-01-24T05:39:31.655Z,43.25
2019-01-24T05:41:59.638Z,39.50
2019-01-24T05:44:27.578Z,44.70
2019-01-24T05:46:55.564Z,43.35
2019-01-24T05:49:23.570Z,46.58
2019-01-24T05:51:51.193Z,50.17
2019-01-24T05:54:19.783Z,45.70
2019-01-24T05:56:47.644Z,43.58
2019-01-24T05:59:15.215Z,40.25
2019-01-24T06:01:43.269Z,43.98
2019-01-24T06:04:10.944Z,37.58
2019-01-24T06:06:38.818Z,38.35
2019-01-24T06:09:06.986Z,49.75
2019-01-24T06:11:34.972Z,43.23
2019-01-24T06:14:02.608Z,44.48
2019-01-24T06:16:30.682Z,41.10
2019-01-24T06:18:58.642Z,44.63
2019-01-24T06:21:26.347Z,39.00
2019-01-24T06:23:53.984Z,41.13
2019-01-24T06:26:21.935Z,41.83
2019-01-24T06:28:49.512Z,42.20
2019-01-24T06:31:17.022Z,47.93
2019-01-24T06:33:49.834Z,45.00
2019-01-24T06:36:17.702Z,43.17
2019-01-24T06:38:45.571Z,37.17
2019-01-24T06:41:13.118Z,41.35
2019-01-24T06:43:41.098Z,39.05
2019-01-24T06:46:11.098Z,45.17
2019-01-24T06:48:38.774Z,45.70
2019-01-24T06:51:06.534Z,50.40
2019-01-24T06:53:34.501Z,47.00
2019-01-24T06:56:02.473Z,42.88
2019-01-24T06:58:30.447Z,58.08
2019-01-24T07:00:58.614Z,42.13
2019-01-24T07:03:26.563Z,38.28
2019-01-24T07:05:55.517Z,43.25
2019-01-24T07:08:23.278Z,48.02
2019-01-24T07:10:51.178Z,43.80
2019-01-24T07:13:19.384Z,41.92
2019-01-24T07:15:47.518Z,42.20
2019-01-24T07:18:15.331Z,41.08
2019-01-24T07:20:43.293Z,43.63
2019-01-24T07:23:11.318Z,46.50
2019-01-24T07:25:38.935Z,40.92
2019-01-24T07:28:07.079Z,39.67
2019-01-24T07:30:34.622Z,45.58
2019-01-24T07:33:02.722Z,53.78
2019-01-24T07:35:30.418Z,70.00
2019-01-24T07:37:58.219Z,56.98
2019-01-24T07:40:26.129Z,56.95
2019-01-24T07:42:54.050Z,45.33
2019-01-24T07:45:36.329Z,44.05
2019-01-24T07:48:05.073Z,43.05
2019-01-24T07:50:32.630Z,45.80
2019-01-24T07:53:00.364Z,44.70
2019-01-24T07:55:28.283Z,49.10
2019-01-24T07:57:56.547Z,42.95
2019-01-24T08:00:25.034Z,46.23
2019-01-24T08:02:52.896Z,45.98
2019-01-24T08:05:20.830Z,42.30
2019-01-24T08:07:48.594Z,44.53
2019-01-24T08:10:17.281Z,48.92
2019-01-24T08:12:45.262Z,47.27
2019-01-24T08:15:14.458Z,47.15
2019-01-24T08:17:42.331Z,47.93
2019-01-24T08:20:13.037Z,43.30
2019-01-24T08:22:41.157Z,51.08
2019-01-24T08:25:09.146Z,49.08
2019-01-24T08:27:36.738Z,45.95
2019-01-24T08:30:08.352Z,50.70
2019-01-24T08:32:36.097Z,47.75
2019-01-24T08:35:04.468Z,47.05
2019-01-24T08:37:32.578Z,47.80
2019-01-24T08:40:00.619Z,47.27
2019-01-24T08:42:28.373Z,43.75
2019-01-24T08:44:56.534Z,46.48
2019-01-24T08:47:24.111Z,44.63
2019-01-24T08:49:52.258Z,47.08
2019-01-24T08:52:20.359Z,38.58
2019-01-24T08:54:48.826Z,45.28
2019-01-24T08:57:16.739Z,43.75
2019-01-24T08:59:44.457Z,45.75
2019-01-24T09:02:12.132Z,45.52
2019-01-24T09:04:43.667Z,43.67
2019-01-24T09:07:11.639Z,38.92
2019-01-24T09:09:39.574Z,46.02
2019-01-24T09:12:07.490Z,46.83
2019-01-24T09:14:35.370Z,48.85
2019-01-24T09:17:03.680Z,44.93
2019-01-24T09:19:32.146Z,48.87
2019-01-24T09:21:59.964Z,48.90
2019-01-24T09:24:28.039Z,44.67
2019-01-24T09:26:55.808Z,46.15
2019-01-24T09:29:23.993Z,47.53
2019-01-24T09:31:51.635Z,43.33
2019-01-24T09:34:19.292Z,54.63
2019-01-24T09:36:47.443Z,49.20
2019-01-24T09:39:15.447Z,45.33
2019-01-24T09:41:43.056Z,46.15
2019-01-24T09:44:11.235Z,51.28
2019-01-24T09:46:39.042Z,45.83
2019-01-24T09:49:07.182Z,49.03
2019-01-24T09:51:35.091Z,46.27
2019-01-24T09:54:03.492Z,48.33
2019-01-24T09:56:31.318Z,52.33
2019-01-24T09:58:59.338Z,48.83
2019-01-24T10:01:27.370Z,49.20
2019-01-24T10:03:55.483Z,47.37
2019-01-24T10:06:23.398Z,52.50
2019-01-24T10:08:51.760Z,53.43
2019-01-24T10:11:23.629Z,47.20
2019-01-24T10:13:50.394Z,44.10
2019-01-24T10:16:17.992Z,48.23
2019-01-24T10:18:45.682Z,54.50
2019-01-24T10:21:13.282Z,46.30
2019-01-24T10:23:41.120Z,50.50
2019-01-24T10:26:09.487Z,50.80
2019-01-24T10:28:37.150Z,51.23
2019-01-24T10:31:05.126Z,46.30
2019-01-24T10:33:32.726Z,50.57
2019-01-24T10:36:00.695Z,43.97
2019-01-24T10:38:28.288Z,62.47
2019-01-24T10:40:56.507Z,49.70
2019-01-24T10:43:24.479Z,49.80
2019-01-24T10:45:52.813Z,55.30
2019-01-24T10:48:20.415Z,50.30
2019-01-24T10:50:48.461Z,55.10
2019-01-24T10:53:16.031Z,51.50
2019-01-24T10:55:43.729Z,52.53
2019-01-24T10:58:11.658Z,56.67
2019-01-24T11:00:40.930Z,50.40
2019-01-24T11:03:13.736Z,48.13
2019-01-24T11:05:41.497Z,52.40
2019-01-24T11:08:09.435Z,55.63
2019-01-24T11:10:37.541Z,55.13
2019-01-24T11:13:05.800Z,48.77
2019-01-24T11:15:33.489Z,58.13
2019-01-24T11:18:01.367Z,53.07
2019-01-24T11:20:29.587Z,54.97
2019-01-24T11:22:57.131Z,67.47
2019-01-24T11:25:25.850Z,57.23
2019-01-24T11:27:53.736Z,56.80
2019-01-24T11:30:23.416Z,53.67
2019-01-24T11:32:51.006Z,57.97
2019-01-24T11:35:19.763Z,58.30
2019-01-24T11:37:47.966Z,59.57
2019-01-24T11:40:16.595Z,61.03
2019-01-24T11:42:44.348Z,54.70
2019-01-24T11:45:12.459Z,58.67
2019-01-24T11:47:39.975Z,50.40
2019-01-24T11:50:13.378Z,55.60
2019-01-24T11:52:41.446Z,52.97
2019-01-24T11:55:10.412Z,51.97
2019-01-24T11:57:38.630Z,47.33
2019-01-24T12:00:11.974Z,55.10
2019-01-24T12:02:39.808Z,51.97
2019-01-24T12:05:08.502Z,49.30
2019-01-24T12:07:36.178Z,52.37
2019-01-24T12:10:06.182Z,51.80
2019-01-24T12:12:34.401Z,62.70
2019-01-24T12:15:02.180Z,58.57
2019-01-24T12:17:30.647Z,58.47
2019-01-24T12:19:58.270Z,52.17
2019-01-24T12:22:26.126Z,58.00
2019-01-24T12:24:54.534Z,54.97
2019-01-24T12:27:22.165Z,61.77
2019-01-24T12:29:50.218Z,56.60
2019-01-24T12:32:18.171Z,55.40
2019-01-24T12:34:46.229Z,59.17
2019-01-24T12:37:13.965Z,56.73
2019-01-24T12:39:41.917Z,54.17
2019-01-24T12:42:12.455Z,56.80
2019-01-24T12:44:40.127Z,61.50
2019-01-24T12:47:08.044Z,48.07
2019-01-24T12:49:35.682Z,56.60
2019-01-24T12:52:03.406Z,55.53
2019-01-24T12:54:31.126Z,57.80
2019-01-24T12:56:59.258Z,57.87
2019-01-24T12:59:27.314Z,61.37
2019-01-24T13:01:55.626Z,57.20
2019-01-24T13:04:24.694Z,49.10
2019-01-24T13:06:53.142Z,63.30
2019-01-24T13:09:20.774Z,50.90
2019-01-24T13:11:49.230Z,56.90
2019-01-24T13:14:16.999Z,60.33
2019-01-24T13:16:44.816Z,60.00
2019-01-24T13:19:12.584Z,53.80
2019-01-24T13:21:40.263Z,54.07
2019-01-24T13:24:08.301Z,52.87
2019-01-24T13:26:36.330Z,61.70
2019-01-24T13:29:04.375Z,53.07
2019-01-24T13:31:32.442Z,61.63
2019-01-24T13:34:00.822Z,52.57
2019-01-24T13:36:28.546Z,46.10
2019-01-24T13:38:56.559Z,46.60
2019-01-24T13:41:24.626Z,52.20
2019-01-24T13:43:52.330Z,46.08
2019-01-24T13:46:19.878Z,44.90
2019-01-24T13:48:47.810Z,52.25
2019-01-24T13:51:15.376Z,48.02
2019-01-24T13:53:43.466Z,57.10
2019-01-24T13:56:11.174Z,51.45
2019-01-24T13:58:39.454Z,57.13
2019-01-24T14:01:07.144Z,59.57
2019-01-24T14:04:22.097Z,53.80
2019-01-24T14:06:49.673Z,54.55
2019-01-24T14:09:17.575Z,43.80
2019-01-24T14:11:45.250Z,45.20
2019-01-24T14:14:13.199Z,48.90
2019-01-24T14:16:41.639Z,49.83
2019-01-24T14:19:09.423Z,49.88
2019-01-24T14:21:37.487Z,48.10
2019-01-24T14:24:05.835Z,58.07
2019-01-24T14:26:33.370Z,51.20
2019-01-24T14:29:01.123Z,53.63
2019-01-24T14:31:29.035Z,55.40
2019-01-24T14:33:57.231Z,60.98
2019-01-24T14:36:25.400Z,54.35
2019-01-24T14:38:53.594Z,58.77
2019-01-24T14:41:21.520Z,55.98
2019-01-24T14:43:49.491Z,58.60
2019-01-24T14:46:17.583Z,53.53
2019-01-24T14:48:45.242Z,58.42
2019-01-24T14:51:13.122Z,57.95
2019-01-24T14:53:40.798Z,58.92
2019-01-24T14:56:08.564Z,58.63
2019-01-24T14:58:36.194Z,51.65
2019-01-24T15:01:10.054Z,59.08
2019-01-24T15:03:37.594Z,48.52
2019-01-24T15:06:05.400Z,52.57
2019-01-24T15:08:33.495Z,55.17
2019-01-24T15:11:01.148Z,47.95
2019-01-24T15:13:28.835Z,61.15
2019-01-24T15:15:56.579Z,46.65
2019-01-24T15:18:24.253Z,44.65
2019-01-24T15:20:52.414Z,48.48
2019-01-24T15:23:20.679Z,50.92
2019-01-24T15:25:48.557Z,46.40
2019-01-24T15:28:16.219Z,50.85
2019-01-24T15:30:44.176Z,54.13
2019-01-24T15:33:11.862Z,49.13
2019-01-24T15:35:40.551Z,50.80
2019-01-24T15:38:08.799Z,44.00
2019-01-24T15:40:36.542Z,47.85
2019-01-24T15:43:05.018Z,51.30
2019-01-24T15:45:33.107Z,49.58
2019-01-24T15:48:01.090Z,47.43
2019-01-24T15:50:28.794Z,54.25
2019-01-24T15:52:56.418Z,53.13
2019-01-24T15:55:24.247Z,49.20
2019-01-24T15:57:52.146Z,69.00
2019-01-24T16:00:22.063Z,56.10
2019-01-24T16:02:49.754Z,45.83
2019-01-24T16:05:18.206Z,45.73
2019-01-24T16:07:46.086Z,55.80
2019-01-24T16:10:15.263Z,47.15
2019-01-24T16:12:43.258Z,42.00
2019-01-24T16:15:13.982Z,58.10
2019-01-24T16:17:41.601Z,45.92
2019-01-24T16:20:12.378Z,54.47
2019-01-24T16:22:40.508Z,46.35
2019-01-24T16:25:09.142Z,49.70
2019-01-24T16:27:36.760Z,46.58
2019-01-24T16:30:06.923Z,48.02
2019-01-24T16:32:35.199Z,49.27
2019-01-24T16:35:03.855Z,45.37
2019-01-24T16:37:31.546Z,48.17
2019-01-24T16:39:59.122Z,38.78
2019-01-24T16:42:26.822Z,50.77
2019-01-24T16:44:54.618Z,40.80
2019-01-24T16:47:22.678Z,43.60
2019-01-24T16:49:51.351Z,49.03
2019-01-24T16:52:19.716Z,52.83
2019-01-24T16:54:47.487Z,51.70
2019-01-24T16:57:15.141Z,53.67
2019-01-24T16:59:43.731Z,48.23
2019-01-24T17:02:11.557Z,48.60
2019-01-24T17:04:39.211Z,56.80
2019-01-24T17:07:07.117Z,45.00
2019-01-24T17:09:35.007Z,49.80
2019-01-24T17:12:02.701Z,51.53
2019-01-24T17:14:30.441Z,45.50
2019-01-24T17:16:58.102Z,51.73
2019-01-24T17:19:25.902Z,51.43
2019-01-24T17:21:54.248Z,49.43
2019-01-24T17:24:22.283Z,47.27
2019-01-24T17:26:50.172Z,55.07
2019-01-24T17:29:18.084Z,54.63
2019-01-24T17:31:45.642Z,52.08
2019-01-24T17:34:13.166Z,62.40
2019-01-24T17:36:41.194Z,48.47
2019-01-24T17:39:11.059Z,54.47
2019-01-24T17:41:39.322Z,57.83
2019-01-24T17:44:06.900Z,76.40
2019-01-24T17:46:35.515Z,55.05
2019-01-24T17:49:03.335Z,57.48
2019-01-24T17:51:30.964Z,52.40
2019-01-24T17:53:58.962Z,52.00
2019-01-24T17:56:26.588Z,51.80
2019-01-24T17:58:54.190Z,48.13
2019-01-24T18:01:22.075Z,50.97
2019-01-24T18:03:49.715Z,50.20
2019-01-24T18:06:17.679Z,50.60
2019-01-24T18:08:45.423Z,49.23
2019-01-24T18:11:13.450Z,52.70
2019-01-24T18:13:41.283Z,43.33
2019-01-24T18:16:09.463Z,58.50
2019-01-24T18:18:37.928Z,49.53
2019-01-24T18:21:05.999Z,54.83
2019-01-24T18:23:34.004Z,48.85
2019-01-24T18:26:01.860Z,58.60
2019-01-24T18:28:29.521Z,66.22
2019-01-24T18:30:57.240Z,57.40
2019-01-24T18:33:25.255Z,53.58
2019-01-24T18:35:53.325Z,51.77
2019-01-24T18:38:21.424Z,51.55
2019-01-24T18:40:49.177Z,47.27
2019-01-24T18:43:20.819Z,50.50
2019-01-24T18:45:49.506Z,49.77
2019-01-24T18:48:17.279Z,57.48
2019-01-24T18:50:44.973Z,54.50
2019-01-24T18:53:12.824Z,57.48
2019-01-24T18:55:40.751Z,59.40
2019-01-24T18:58:08.632Z,56.70
2019-01-24T19:00:41.899Z,60.23
2019-01-24T19:03:09.881Z,64.62
2019-01-24T19:05:38.155Z,55.98
2019-01-24T19:08:06.639Z,57.13
2019-01-24T19:10:34.718Z,60.33
2019-01-24T19:13:02.460Z,56.20
2019-01-24T19:15:30.097Z,53.30
2019-01-24T19:17:57.891Z,63.08
2019-01-24T19:20:25.738Z,63.40
2019-01-24T19:22:53.520Z,61.58
2019-01-24T19:25:22.614Z,59.03
2019-01-24T19:27:50.350Z,59.60
2019-01-24T19:30:22.958Z,56.60
2019-01-24T19:32:51.031Z,66.17
2019-01-24T19:35:18.962Z,65.90
2019-01-24T19:37:47.073Z,63.55
2019-01-24T19:40:16.231Z,56.58
2019-01-24T19:42:43.879Z,59.70
2019-01-24T19:45:14.504Z,61.55
2019-01-24T19:47:42.287Z,56.00
2019-01-24T19:50:12.054Z,58.60
2019-01-24T19:52:40.471Z,65.08
2019-01-24T19:55:09.132Z,68.90
2019-01-24T19:57:37.187Z,73.72
2019-01-24T20:00:08.229Z,56.20
2019-01-24T20:02:35.874Z,62.23
2019-01-24T20:05:04.555Z,63.33
2019-01-24T20:07:32.209Z,68.90
2019-01-24T20:10:01.342Z,58.15
2019-01-24T20:12:29.289Z,59.98
2019-01-24T20:14:57.550Z,76.15
2019-01-24T20:17:26.432Z,58.15
2019-01-24T20:19:54.830Z,60.75
2019-01-24T20:22:22.683Z,54.23
2019-01-24T20:24:50.395Z,73.35
2019-01-24T20:27:18.004Z,64.05
2019-01-24T20:29:45.694Z,62.48
2019-01-24T20:32:13.743Z,63.63
2019-01-24T20:34:41.787Z,61.42
2019-01-24T20:37:09.525Z,53.78
2019-01-24T20:39:37.462Z,57.55
2019-01-24T20:42:05.028Z,62.33
2019-01-24T20:44:32.892Z,58.00
2019-01-24T20:47:01.035Z,64.30
2019-01-24T20:49:29.346Z,56.63
2019-01-24T20:51:57.306Z,66.37
2019-01-24T20:54:25.059Z,55.28
2019-01-24T20:56:52.827Z,69.30
2019-01-24T20:59:20.525Z,58.10
2019-01-24T21:01:49.404Z,54.95
2019-01-24T21:04:17.105Z,62.73
2019-01-24T21:06:44.768Z,60.73
2019-01-24T21:09:14.872Z,53.35
2019-01-24T21:11:42.386Z,61.48
2019-01-24T21:14:10.042Z,70.12
2019-01-24T21:16:38.219Z,57.27
2019-01-24T21:19:06.287Z,67.10
2019-01-24T21:21:34.027Z,66.00
2019-01-24T21:24:01.823Z,72.80
2019-01-24T21:26:29.431Z,62.13
2019-01-24T21:28:57.084Z,57.13
2019-01-24T21:31:24.883Z,60.15
2019-01-24T21:33:52.541Z,56.05
2019-01-24T21:36:20.259Z,65.45
2019-01-24T21:38:48.590Z,61.20
2019-01-24T21:41:16.474Z,64.05
2019-01-24T21:43:44.443Z,67.25
2019-01-24T21:46:12.386Z,62.58
2019-01-24T21:48:40.523Z,62.20
2019-01-24T21:51:11.329Z,62.03
2019-01-24T21:53:37.621Z,66.72
2019-01-24T21:56:05.566Z,66.05
2019-01-24T21:58:33.222Z,57.93
2019-01-24T22:01:00.816Z,61.18
2019-01-24T22:03:28.478Z,57.20
2019-01-24T22:05:56.036Z,56.05
2019-01-24T22:08:25.279Z,63.30
2019-01-24T22:10:52.994Z,65.40
2019-01-24T22:13:21.379Z,62.05
2019-01-24T22:15:48.934Z,59.98
2019-01-24T22:18:16.757Z,61.70
2019-01-24T22:20:44.350Z,62.55
2019-01-24T22:23:12.431Z,59.63
2019-01-24T22:25:40.078Z,64.85
2019-01-24T22:28:07.757Z,57.38
2019-01-24T22:30:46.543Z,59.33
2019-01-24T22:33:14.359Z,63.70
2019-01-24T22:35:41.888Z,59.13
2019-01-24T22:38:09.761Z,50.95
2019-01-24T22:40:37.733Z,63.23
2019-01-24T22:43:05.905Z,65.25
2019-01-24T22:45:33.570Z,58.63
2019-01-24T22:48:01.666Z,61.73
2019-01-24T22:50:29.559Z,56.77
2019-01-24T22:52:57.647Z,54.25
2019-01-24T22:55:25.344Z,61.37
2019-01-24T22:57:53.411Z,53.45
2019-01-24T23:00:51.466Z,55.52
2019-01-24T23:03:40.227Z,58.35
2019-01-24T23:06:07.954Z,48.00
2019-01-24T23:08:35.603Z,53.98
2019-01-24T23:11:04.434Z,53.85
2019-01-24T23:13:32.290Z,56.00
2019-01-24T23:15:59.826Z,50.12
2019-01-24T23:18:27.434Z,44.60
2019-01-24T23:20:55.653Z,47.93
2019-01-24T23:23:23.283Z,50.52
2019-01-24T23:25:50.794Z,45.17
2019-01-24T23:28:18.335Z,39.75
2019-01-24T23:30:45.898Z,37.63
2019-01-24T23:33:13.891Z,45.67
2019-01-24T23:35:41.904Z,43.68
2019-01-24T23:38:09.522Z,40.70
2019-01-24T23:40:37.102Z,42.13
2019-01-24T23:43:05.250Z,55.60
2019-01-24T23:45:33.358Z,39.60
2019-01-24T23:48:01.646Z,42.05
2019-01-24T23:50:29.610Z,43.07
2019-01-24T23:52:57.191Z,38.40
2019-01-24T23:55:25.187Z,41.27
2019-01-24T23:57:52.800Z,43.73
